sensor_id;sensor_type;location;lat;lon;timestamp;P1;durP1;ratioP1;P2;durP2;ratioP2
16484;SDS011;8353;47.856;12.344;2022-09-13T00:01:55;1.58;;;1.48;;
16484;SDS011;8353;47.856;12.344;2022-09-13T00:04:42;2.85;;;2.20;;
16484;SDS011;8353;47.856;12.344;2022-09-13T00:07:29;1.70;;;1.60;;
16484;SDS011;8353;47.856;12.344;2022-09-13T00:10:15;1.30;;;1.20;;
16484;SDS011;8353;47.856;12.344;2022-09-13T00:13:02;2.67;;;1.80;;
16484;SDS011;8353;47.856;12.344;2022-09-13T00:15:50;1.65;;;1.55;;
16484;SDS011;8353;47.856;12.344;2022-09-13T00:18:38;1.65;;;1.55;;
16484;SDS011;8353;47.856;12.344;2022-09-13T00:21:25;1.27;;;1.20;;
16484;SDS011;8353;47.856;12.344;2022-09-13T00:24:13;2.70;;;2.08;;
16484;SDS011;8353;47.856;12.344;2022-09-13T00:26:59;1.23;;;1.13;;
16484;SDS011;8353;47.856;12.344;2022-09-13T00:29:46;1.30;;;1.20;;
16484;SDS011;8353;47.856;12.344;2022-09-13T00:32:33;1.52;;;1.42;;
16484;SDS011;8353;47.856;12.344;2022-09-13T00:35:22;1.33;;;1.23;;
16484;SDS011;8353;47.856;12.344;2022-09-13T00:38:08;1.58;;;1.48;;
16484;SDS011;8353;47.856;12.344;2022-09-13T00:40:55;1.33;;;1.23;;
16484;SDS011;8353;47.856;12.344;2022-09-13T00:43:44;1.30;;;1.20;;
16484;SDS011;8353;47.856;12.344;2022-09-13T00:46:34;1.70;;;1.60;;
16484;SDS011;8353;47.856;12.344;2022-09-13T00:49:25;1.20;;;1.10;;
16484;SDS011;8353;47.856;12.344;2022-09-13T00:52:19;1.00;;;1.00;;
16484;SDS011;8353;47.856;12.344;2022-09-13T00:55:10;1.48;;;1.10;;
16484;SDS011;8353;47.856;12.344;2022-09-13T00:58:01;1.70;;;1.60;;
16484;SDS011;8353;47.856;12.344;2022-09-13T01:00:50;2.15;;;1.30;;
16484;SDS011;8353;47.856;12.344;2022-09-13T01:03:38;1.80;;;1.70;;
16484;SDS011;8353;47.856;12.344;2022-09-13T01:06:28;1.23;;;1.13;;
16484;SDS011;8353;47.856;12.344;2022-09-13T01:09:19;2.35;;;1.92;;
16484;SDS011;8353;47.856;12.344;2022-09-13T01:12:07;1.58;;;1.48;;
16484;SDS011;8353;47.856;12.344;2022-09-13T01:15:03;1.92;;;1.30;;
16484;SDS011;8353;47.856;12.344;2022-09-13T01:17:52;2.55;;;1.27;;
16484;SDS011;8353;47.856;12.344;2022-09-13T01:20:44;1.50;;;1.40;;
16484;SDS011;8353;47.856;12.344;2022-09-13T01:23:48;1.67;;;1.58;;
16484;SDS011;8353;47.856;12.344;2022-09-13T01:30:17;1.50;;;1.40;;
16484;SDS011;8353;47.856;12.344;2022-09-13T01:33:08;2.03;;;1.88;;
16484;SDS011;8353;47.856;12.344;2022-09-13T01:36:27;1.40;;;1.30;;
16484;SDS011;8353;47.856;12.344;2022-09-13T01:39:35;1.83;;;1.73;;
16484;SDS011;8353;47.856;12.344;2022-09-13T01:42:48;1.33;;;1.23;;
16484;SDS011;8353;47.856;12.344;2022-09-13T01:45:59;1.45;;;1.35;;
16484;SDS011;8353;47.856;12.344;2022-09-13T01:48:54;1.60;;;1.50;;
16484;SDS011;8353;47.856;12.344;2022-09-13T01:51:49;1.70;;;1.48;;
16484;SDS011;8353;47.856;12.344;2022-09-13T01:54:44;1.30;;;1.20;;
16484;SDS011;8353;47.856;12.344;2022-09-13T01:57:40;1.27;;;1.17;;
16484;SDS011;8353;47.856;12.344;2022-09-13T02:00:35;1.40;;;1.30;;
16484;SDS011;8353;47.856;12.344;2022-09-13T02:03:29;1.63;;;1.52;;
16484;SDS011;8353;47.856;12.344;2022-09-13T02:06:22;3.05;;;1.95;;
16484;SDS011;8353;47.856;12.344;2022-09-13T02:09:18;3.10;;;2.15;;
16484;SDS011;8353;47.856;12.344;2022-09-13T02:12:12;3.13;;;1.65;;
16484;SDS011;8353;47.856;12.344;2022-09-13T02:15:09;2.40;;;2.08;;
16484;SDS011;8353;47.856;12.344;2022-09-13T02:18:01;2.15;;;2.00;;
16484;SDS011;8353;47.856;12.344;2022-09-13T02:20:59;1.60;;;1.50;;
16484;SDS011;8353;47.856;12.344;2022-09-13T02:23:54;2.53;;;2.17;;
16484;SDS011;8353;47.856;12.344;2022-09-13T02:26:46;2.67;;;1.70;;
16484;SDS011;8353;47.856;12.344;2022-09-13T02:29:38;3.92;;;2.10;;
16484;SDS011;8353;47.856;12.344;2022-09-13T02:32:33;3.00;;;2.20;;
16484;SDS011;8353;47.856;12.344;2022-09-13T02:35:25;2.38;;;1.27;;
16484;SDS011;8353;47.856;12.344;2022-09-13T02:38:21;2.00;;;1.80;;
16484;SDS011;8353;47.856;12.344;2022-09-13T02:41:13;1.63;;;1.40;;
16484;SDS011;8353;47.856;12.344;2022-09-13T02:44:06;1.40;;;1.30;;
16484;SDS011;8353;47.856;12.344;2022-09-13T02:47:02;2.33;;;1.50;;
16484;SDS011;8353;47.856;12.344;2022-09-13T02:49:55;1.33;;;1.10;;
16484;SDS011;8353;47.856;12.344;2022-09-13T02:52:51;1.63;;;1.53;;
16484;SDS011;8353;47.856;12.344;2022-09-13T02:56:04;1.67;;;1.20;;
16484;SDS011;8353;47.856;12.344;2022-09-13T02:59:07;1.37;;;1.27;;
16484;SDS011;8353;47.856;12.344;2022-09-13T03:02:00;1.10;;;1.10;;
16484;SDS011;8353;47.856;12.344;2022-09-13T03:04:52;1.37;;;1.13;;
16484;SDS011;8353;47.856;12.344;2022-09-13T03:07:40;1.75;;;1.23;;
16484;SDS011;8353;47.856;12.344;2022-09-13T03:10:29;1.43;;;1.10;;
16484;SDS011;8353;47.856;12.344;2022-09-13T03:13:31;1.70;;;1.60;;
16484;SDS011;8353;47.856;12.344;2022-09-13T03:16:32;1.50;;;1.30;;
16484;SDS011;8353;47.856;12.344;2022-09-13T03:19:37;2.60;;;1.53;;
16484;SDS011;8353;47.856;12.344;2022-09-13T03:29:24;2.25;;;1.20;;
16484;SDS011;8353;47.856;12.344;2022-09-13T03:32:19;1.73;;;1.30;;
16484;SDS011;8353;47.856;12.344;2022-09-13T03:35:16;2.33;;;1.48;;
16484;SDS011;8353;47.856;12.344;2022-09-13T03:38:14;2.25;;;1.30;;
16484;SDS011;8353;47.856;12.344;2022-09-13T03:41:06;1.20;;;1.10;;
16484;SDS011;8353;47.856;12.344;2022-09-13T03:43:58;1.17;;;1.10;;
16484;SDS011;8353;47.856;12.344;2022-09-13T03:46:50;1.93;;;1.30;;
16484;SDS011;8353;47.856;12.344;2022-09-13T03:49:41;1.63;;;1.13;;
16484;SDS011;8353;47.856;12.344;2022-09-13T03:52:29;3.33;;;1.70;;
16484;SDS011;8353;47.856;12.344;2022-09-13T03:55:17;1.10;;;1.00;;
16484;SDS011;8353;47.856;12.344;2022-09-13T03:58:07;1.33;;;1.13;;
16484;SDS011;8353;47.856;12.344;2022-09-13T04:00:57;1.00;;;1.00;;
16484;SDS011;8353;47.856;12.344;2022-09-13T04:03:49;2.93;;;1.40;;
16484;SDS011;8353;47.856;12.344;2022-09-13T04:06:37;1.67;;;1.20;;
16484;SDS011;8353;47.856;12.344;2022-09-13T04:09:24;4.00;;;1.10;;
16484;SDS011;8353;47.856;12.344;2022-09-13T04:12:12;1.23;;;1.00;;
16484;SDS011;8353;47.856;12.344;2022-09-13T04:15:03;1.07;;;1.07;;
16484;SDS011;8353;47.856;12.344;2022-09-13T04:17:54;1.30;;;1.20;;
16484;SDS011;8353;47.856;12.344;2022-09-13T04:20:43;1.87;;;1.77;;
16484;SDS011;8353;47.856;12.344;2022-09-13T04:23:30;1.57;;;1.40;;
16484;SDS011;8353;47.856;12.344;2022-09-13T04:26:17;2.20;;;1.60;;
16484;SDS011;8353;47.856;12.344;2022-09-13T04:29:06;1.27;;;1.17;;
16484;SDS011;8353;47.856;12.344;2022-09-13T04:31:57;2.40;;;1.10;;
16484;SDS011;8353;47.856;12.344;2022-09-13T04:34:47;1.50;;;1.40;;
16484;SDS011;8353;47.856;12.344;2022-09-13T04:37:36;2.00;;;1.20;;
16484;SDS011;8353;47.856;12.344;2022-09-13T04:40:30;1.20;;;1.10;;
16484;SDS011;8353;47.856;12.344;2022-09-13T04:43:21;1.53;;;1.43;;
16484;SDS011;8353;47.856;12.344;2022-09-13T04:46:09;1.40;;;1.30;;
16484;SDS011;8353;47.856;12.344;2022-09-13T04:48:56;2.33;;;1.63;;
16484;SDS011;8353;47.856;12.344;2022-09-13T04:51:43;1.83;;;1.00;;
16484;SDS011;8353;47.856;12.344;2022-09-13T04:54:32;4.07;;;1.50;;
16484;SDS011;8353;47.856;12.344;2022-09-13T04:57:19;1.70;;;1.60;;
16484;SDS011;8353;47.856;12.344;2022-09-13T05:00:07;1.23;;;1.13;;
16484;SDS011;8353;47.856;12.344;2022-09-13T05:02:55;1.70;;;1.57;;
16484;SDS011;8353;47.856;12.344;2022-09-13T05:05:44;1.40;;;1.30;;
16484;SDS011;8353;47.856;12.344;2022-09-13T05:08:34;2.60;;;1.20;;
16484;SDS011;8353;47.856;12.344;2022-09-13T05:11:26;2.17;;;1.70;;
16484;SDS011;8353;47.856;12.344;2022-09-13T05:14:17;2.00;;;1.20;;
16484;SDS011;8353;47.856;12.344;2022-09-13T05:17:03;1.77;;;1.13;;
16484;SDS011;8353;47.856;12.344;2022-09-13T05:19:51;1.73;;;1.40;;
16484;SDS011;8353;47.856;12.344;2022-09-13T05:22:39;2.00;;;1.47;;
16484;SDS011;8353;47.856;12.344;2022-09-13T05:25:26;1.40;;;1.30;;
16484;SDS011;8353;47.856;12.344;2022-09-13T05:28:17;1.40;;;1.30;;
16484;SDS011;8353;47.856;12.344;2022-09-13T05:31:05;1.10;;;1.00;;
16484;SDS011;8353;47.856;12.344;2022-09-13T05:33:56;1.10;;;1.00;;
16484;SDS011;8353;47.856;12.344;2022-09-13T05:36:45;2.75;;;1.70;;
16484;SDS011;8353;47.856;12.344;2022-09-13T05:39:35;1.45;;;1.20;;
16484;SDS011;8353;47.856;12.344;2022-09-13T05:42:25;4.80;;;1.73;;
16484;SDS011;8353;47.856;12.344;2022-09-13T05:45:14;2.80;;;1.50;;
16484;SDS011;8353;47.856;12.344;2022-09-13T05:48:03;2.60;;;2.35;;
16484;SDS011;8353;47.856;12.344;2022-09-13T05:50:53;1.92;;;1.30;;
16484;SDS011;8353;47.856;12.344;2022-09-13T05:53:40;1.45;;;1.35;;
16484;SDS011;8353;47.856;12.344;2022-09-13T05:56:29;1.58;;;1.45;;
16484;SDS011;8353;47.856;12.344;2022-09-13T05:59:19;3.28;;;1.95;;
16484;SDS011;8353;47.856;12.344;2022-09-13T06:02:09;4.10;;;1.80;;
16484;SDS011;8353;47.856;12.344;2022-09-13T06:04:56;4.85;;;3.30;;
16484;SDS011;8353;47.856;12.344;2022-09-13T06:07:43;6.63;;;3.55;;
16484;SDS011;8353;47.856;12.344;2022-09-13T06:10:35;9.05;;;3.00;;
16484;SDS011;8353;47.856;12.344;2022-09-13T06:13:22;5.55;;;3.20;;
16484;SDS011;8353;47.856;12.344;2022-09-13T06:16:11;6.60;;;3.40;;
16484;SDS011;8353;47.856;12.344;2022-09-13T06:19:08;5.88;;;3.00;;
16484;SDS011;8353;47.856;12.344;2022-09-13T06:21:57;3.67;;;3.05;;
16484;SDS011;8353;47.856;12.344;2022-09-13T06:24:44;5.18;;;2.83;;
16484;SDS011;8353;47.856;12.344;2022-09-13T06:27:34;4.57;;;2.13;;
16484;SDS011;8353;47.856;12.344;2022-09-13T06:30:26;9.13;;;2.63;;
16484;SDS011;8353;47.856;12.344;2022-09-13T06:33:13;3.65;;;2.58;;
16484;SDS011;8353;47.856;12.344;2022-09-13T06:36:02;3.08;;;1.75;;
16484;SDS011;8353;47.856;12.344;2022-09-13T06:38:50;4.28;;;2.00;;
16484;SDS011;8353;47.856;12.344;2022-09-13T06:41:44;2.40;;;1.60;;
16484;SDS011;8353;47.856;12.344;2022-09-13T06:44:34;3.90;;;2.35;;
16484;SDS011;8353;47.856;12.344;2022-09-13T06:47:29;7.30;;;2.88;;
16484;SDS011;8353;47.856;12.344;2022-09-13T06:50:16;15.07;;;4.20;;
16484;SDS011;8353;47.856;12.344;2022-09-13T06:53:05;10.57;;;3.75;;
16484;SDS011;8353;47.856;12.344;2022-09-13T06:55:58;13.25;;;3.78;;
16484;SDS011;8353;47.856;12.344;2022-09-13T06:58:47;18.40;;;6.00;;
16484;SDS011;8353;47.856;12.344;2022-09-13T07:01:35;5.60;;;2.70;;
16484;SDS011;8353;47.856;12.344;2022-09-13T07:04:23;6.22;;;2.33;;
16484;SDS011;8353;47.856;12.344;2022-09-13T07:07:15;3.92;;;2.67;;
16484;SDS011;8353;47.856;12.344;2022-09-13T07:10:05;12.40;;;4.82;;
16484;SDS011;8353;47.856;12.344;2022-09-13T07:12:53;6.22;;;3.22;;
16484;SDS011;8353;47.856;12.344;2022-09-13T07:15:41;2.42;;;2.22;;
16484;SDS011;8353;47.856;12.344;2022-09-13T07:18:28;7.30;;;6.47;;
16484;SDS011;8353;47.856;12.344;2022-09-13T07:21:17;3.35;;;2.38;;
16484;SDS011;8353;47.856;12.344;2022-09-13T07:24:05;2.65;;;2.05;;
16484;SDS011;8353;47.856;12.344;2022-09-13T07:26:53;2.55;;;2.20;;
16484;SDS011;8353;47.856;12.344;2022-09-13T07:29:41;6.95;;;2.85;;
16484;SDS011;8353;47.856;12.344;2022-09-13T07:32:30;3.05;;;1.60;;
16484;SDS011;8353;47.856;12.344;2022-09-13T07:35:18;6.15;;;1.73;;
16484;SDS011;8353;47.856;12.344;2022-09-13T07:38:10;2.97;;;1.33;;
16484;SDS011;8353;47.856;12.344;2022-09-13T07:40:59;1.45;;;1.10;;
16484;SDS011;8353;47.856;12.344;2022-09-13T07:43:50;2.70;;;1.20;;
16484;SDS011;8353;47.856;12.344;2022-09-13T07:46:38;1.92;;;1.00;;
16484;SDS011;8353;47.856;12.344;2022-09-13T07:49:35;2.00;;;1.13;;
16484;SDS011;8353;47.856;12.344;2022-09-13T07:52:22;2.95;;;1.20;;
16484;SDS011;8353;47.856;12.344;2022-09-13T07:55:09;1.05;;;0.90;;
16484;SDS011;8353;47.856;12.344;2022-09-13T07:57:57;1.95;;;0.85;;
16484;SDS011;8353;47.856;12.344;2022-09-13T08:00:45;1.40;;;1.02;;
16484;SDS011;8353;47.856;12.344;2022-09-13T08:03:33;1.73;;;1.00;;
16484;SDS011;8353;47.856;12.344;2022-09-13T08:06:21;0.85;;;0.85;;
16484;SDS011;8353;47.856;12.344;2022-09-13T08:09:15;1.00;;;0.90;;
16484;SDS011;8353;47.856;12.344;2022-09-13T08:12:06;1.27;;;0.90;;
16484;SDS011;8353;47.856;12.344;2022-09-13T08:14:54;1.90;;;0.85;;
16484;SDS011;8353;47.856;12.344;2022-09-13T08:17:43;1.27;;;0.95;;
16484;SDS011;8353;47.856;12.344;2022-09-13T08:20:34;0.98;;;0.80;;
16484;SDS011;8353;47.856;12.344;2022-09-13T08:23:25;1.10;;;0.85;;
16484;SDS011;8353;47.856;12.344;2022-09-13T08:26:13;2.17;;;0.80;;
16484;SDS011;8353;47.856;12.344;2022-09-13T08:29:04;1.42;;;0.50;;
16484;SDS011;8353;47.856;12.344;2022-09-13T08:31:57;2.50;;;0.80;;
16484;SDS011;8353;47.856;12.344;2022-09-13T08:34:45;3.50;;;1.52;;
16484;SDS011;8353;47.856;12.344;2022-09-13T08:37:33;0.73;;;0.73;;
16484;SDS011;8353;47.856;12.344;2022-09-13T08:40:20;1.23;;;0.90;;
16484;SDS011;8353;47.856;12.344;2022-09-13T08:43:11;1.25;;;0.70;;
16484;SDS011;8353;47.856;12.344;2022-09-13T08:46:09;0.80;;;0.80;;
16484;SDS011;8353;47.856;12.344;2022-09-13T08:49:05;1.73;;;0.93;;
16484;SDS011;8353;47.856;12.344;2022-09-13T08:52:02;1.15;;;0.73;;
16484;SDS011;8353;47.856;12.344;2022-09-13T08:55:05;1.52;;;0.80;;
16484;SDS011;8353;47.856;12.344;2022-09-13T08:58:24;2.85;;;1.02;;
16484;SDS011;8353;47.856;12.344;2022-09-13T09:01:37;1.45;;;0.95;;
16484;SDS011;8353;47.856;12.344;2022-09-13T09:04:36;1.05;;;0.93;;
16484;SDS011;8353;47.856;12.344;2022-09-13T09:07:30;2.90;;;1.10;;
16484;SDS011;8353;47.856;12.344;2022-09-13T09:10:24;2.72;;;1.80;;
16484;SDS011;8353;47.856;12.344;2022-09-13T09:13:18;1.50;;;1.30;;
16484;SDS011;8353;47.856;12.344;2022-09-13T09:16:15;1.00;;;1.00;;
16484;SDS011;8353;47.856;12.344;2022-09-13T09:19:17;3.25;;;1.20;;
16484;SDS011;8353;47.856;12.344;2022-09-13T09:22:10;2.95;;;1.08;;
16484;SDS011;8353;47.856;12.344;2022-09-13T09:25:03;2.08;;;1.30;;
16484;SDS011;8353;47.856;12.344;2022-09-13T09:27:54;1.65;;;1.00;;
16484;SDS011;8353;47.856;12.344;2022-09-13T09:30:45;1.60;;;1.00;;
16484;SDS011;8353;47.856;12.344;2022-09-13T09:33:47;1.80;;;0.88;;
16484;SDS011;8353;47.856;12.344;2022-09-13T09:36:43;1.70;;;1.08;;
16484;SDS011;8353;47.856;12.344;2022-09-13T09:39:36;2.78;;;1.20;;
16484;SDS011;8353;47.856;12.344;2022-09-13T09:42:26;1.20;;;1.10;;
16484;SDS011;8353;47.856;12.344;2022-09-13T09:45:23;0.70;;;0.70;;
16484;SDS011;8353;47.856;12.344;2022-09-13T09:48:12;1.20;;;1.10;;
16484;SDS011;8353;47.856;12.344;2022-09-13T09:51:04;2.03;;;1.10;;
16484;SDS011;8353;47.856;12.344;2022-09-13T09:53:56;1.50;;;1.00;;
16484;SDS011;8353;47.856;12.344;2022-09-13T09:56:51;1.08;;;0.98;;
16484;SDS011;8353;47.856;12.344;2022-09-13T09:59:40;0.90;;;0.90;;
16484;SDS011;8353;47.856;12.344;2022-09-13T10:02:27;2.45;;;1.10;;
16484;SDS011;8353;47.856;12.344;2022-09-13T10:05:16;3.83;;;1.77;;
16484;SDS011;8353;47.856;12.344;2022-09-13T10:08:05;1.40;;;0.90;;
16484;SDS011;8353;47.856;12.344;2022-09-13T10:10:54;1.13;;;0.98;;
16484;SDS011;8353;47.856;12.344;2022-09-13T10:13:55;1.75;;;0.98;;
16484;SDS011;8353;47.856;12.344;2022-09-13T10:16:45;3.20;;;1.30;;
16484;SDS011;8353;47.856;12.344;2022-09-13T10:19:32;1.42;;;0.88;;
16484;SDS011;8353;47.856;12.344;2022-09-13T10:22:19;2.42;;;1.10;;
16484;SDS011;8353;47.856;12.344;2022-09-13T10:25:13;1.27;;;0.80;;
16484;SDS011;8353;47.856;12.344;2022-09-13T10:28:03;1.25;;;0.70;;
16484;SDS011;8353;47.856;12.344;2022-09-13T10:30:56;0.98;;;0.90;;
16484;SDS011;8353;47.856;12.344;2022-09-13T10:33:52;1.23;;;0.70;;
16484;SDS011;8353;47.856;12.344;2022-09-13T10:36:45;1.00;;;0.90;;
16484;SDS011;8353;47.856;12.344;2022-09-13T10:39:51;1.45;;;0.77;;
16484;SDS011;8353;47.856;12.344;2022-09-13T10:42:49;2.22;;;0.95;;
16484;SDS011;8353;47.856;12.344;2022-09-13T10:45:38;1.10;;;1.00;;
16484;SDS011;8353;47.856;12.344;2022-09-13T10:48:27;0.82;;;0.77;;
16484;SDS011;8353;47.856;12.344;2022-09-13T10:51:30;1.75;;;0.70;;
16484;SDS011;8353;47.856;12.344;2022-09-13T10:54:22;2.20;;;0.90;;
16484;SDS011;8353;47.856;12.344;2022-09-13T10:57:18;1.00;;;0.90;;
16484;SDS011;8353;47.856;12.344;2022-09-13T11:00:20;1.45;;;0.80;;
16484;SDS011;8353;47.856;12.344;2022-09-13T11:03:22;0.95;;;0.95;;
16484;SDS011;8353;47.856;12.344;2022-09-13T11:06:21;1.33;;;1.23;;
16484;SDS011;8353;47.856;12.344;2022-09-13T11:09:17;1.00;;;0.90;;
16484;SDS011;8353;47.856;12.344;2022-09-13T11:12:07;1.38;;;0.93;;
16484;SDS011;8353;47.856;12.344;2022-09-13T11:15:05;1.30;;;0.90;;
16484;SDS011;8353;47.856;12.344;2022-09-13T11:18:16;1.13;;;0.82;;
16484;SDS011;8353;47.856;12.344;2022-09-13T11:21:17;1.25;;;0.82;;
16484;SDS011;8353;47.856;12.344;2022-09-13T11:27:33;1.38;;;0.85;;
16484;SDS011;8353;47.856;12.344;2022-09-13T11:30:29;1.88;;;1.17;;
16484;SDS011;8353;47.856;12.344;2022-09-13T11:33:26;1.85;;;0.90;;
16484;SDS011;8353;47.856;12.344;2022-09-13T11:36:26;1.35;;;1.00;;
16484;SDS011;8353;47.856;12.344;2022-09-13T11:39:30;1.13;;;0.90;;
16484;SDS011;8353;47.856;12.344;2022-09-13T11:42:23;2.42;;;1.20;;
16484;SDS011;8353;47.856;12.344;2022-09-13T11:45:22;1.83;;;1.00;;
16484;SDS011;8353;47.856;12.344;2022-09-13T11:48:27;1.73;;;1.08;;
16484;SDS011;8353;47.856;12.344;2022-09-13T11:51:27;1.35;;;1.10;;
16484;SDS011;8353;47.856;12.344;2022-09-13T11:54:25;1.02;;;0.90;;
16484;SDS011;8353;47.856;12.344;2022-09-13T11:57:34;0.70;;;0.70;;
16484;SDS011;8353;47.856;12.344;2022-09-13T12:00:27;0.90;;;0.90;;
16484;SDS011;8353;47.856;12.344;2022-09-13T12:03:19;1.63;;;1.00;;
16484;SDS011;8353;47.856;12.344;2022-09-13T12:06:12;1.15;;;0.90;;
16484;SDS011;8353;47.856;12.344;2022-09-13T12:09:06;2.05;;;0.93;;
16484;SDS011;8353;47.856;12.344;2022-09-13T12:12:02;1.10;;;1.00;;
16484;SDS011;8353;47.856;12.344;2022-09-13T12:14:53;6.15;;;2.97;;
16484;SDS011;8353;47.856;12.344;2022-09-13T12:17:44;1.15;;;0.75;;
16484;SDS011;8353;47.856;12.344;2022-09-13T12:20:35;0.98;;;0.70;;
16484;SDS011;8353;47.856;12.344;2022-09-13T12:23:27;0.80;;;0.80;;
16484;SDS011;8353;47.856;12.344;2022-09-13T12:26:17;1.80;;;0.88;;
16484;SDS011;8353;47.856;12.344;2022-09-13T12:29:10;0.70;;;0.70;;
16484;SDS011;8353;47.856;12.344;2022-09-13T12:32:04;1.00;;;0.88;;
16484;SDS011;8353;47.856;12.344;2022-09-13T12:34:53;1.13;;;0.90;;
16484;SDS011;8353;47.856;12.344;2022-09-13T12:41:09;1.33;;;0.80;;
16484;SDS011;8353;47.856;12.344;2022-09-13T12:44:22;1.85;;;0.88;;
16484;SDS011;8353;47.856;12.344;2022-09-13T12:47:31;1.40;;;0.80;;
16484;SDS011;8353;47.856;12.344;2022-09-13T12:50:36;0.90;;;0.77;;
16484;SDS011;8353;47.856;12.344;2022-09-13T12:53:59;0.88;;;0.88;;
16484;SDS011;8353;47.856;12.344;2022-09-13T12:57:11;1.15;;;0.70;;
16484;SDS011;8353;47.856;12.344;2022-09-13T13:00:18;1.05;;;0.90;;
16484;SDS011;8353;47.856;12.344;2022-09-13T13:03:12;0.70;;;0.70;;
16484;SDS011;8353;47.856;12.344;2022-09-13T13:06:07;0.85;;;0.85;;
16484;SDS011;8353;47.856;12.344;2022-09-13T13:08:57;1.58;;;0.90;;
16484;SDS011;8353;47.856;12.344;2022-09-13T13:11:47;1.02;;;0.88;;
16484;SDS011;8353;47.856;12.344;2022-09-13T13:14:46;1.67;;;0.70;;
16484;SDS011;8353;47.856;12.344;2022-09-13T13:17:41;0.80;;;0.80;;
16484;SDS011;8353;47.856;12.344;2022-09-13T13:20:44;1.85;;;0.90;;
16484;SDS011;8353;47.856;12.344;2022-09-13T13:23:51;1.35;;;1.08;;
16484;SDS011;8353;47.856;12.344;2022-09-13T13:27:35;1.08;;;0.80;;
16484;SDS011;8353;47.856;12.344;2022-09-13T13:30:46;1.80;;;0.82;;
16484;SDS011;8353;47.856;12.344;2022-09-13T13:33:45;1.23;;;0.90;;
16484;SDS011;8353;47.856;12.344;2022-09-13T13:36:42;0.80;;;0.80;;
16484;SDS011;8353;47.856;12.344;2022-09-13T13:39:34;1.33;;;0.70;;
16484;SDS011;8353;47.856;12.344;2022-09-13T13:42:23;1.00;;;0.80;;
16484;SDS011;8353;47.856;12.344;2022-09-13T13:48:23;0.80;;;0.80;;
16484;SDS011;8353;47.856;12.344;2022-09-13T13:51:22;0.70;;;0.70;;
16484;SDS011;8353;47.856;12.344;2022-09-13T13:57:20;1.15;;;0.75;;
16484;SDS011;8353;47.856;12.344;2022-09-13T14:00:10;2.42;;;0.93;;
16484;SDS011;8353;47.856;12.344;2022-09-13T14:03:05;1.38;;;1.10;;
16484;SDS011;8353;47.856;12.344;2022-09-13T14:06:02;1.65;;;1.00;;
16484;SDS011;8353;47.856;12.344;2022-09-13T14:09:02;1.13;;;1.05;;
16484;SDS011;8353;47.856;12.344;2022-09-13T14:11:56;1.42;;;1.30;;
16484;SDS011;8353;47.856;12.344;2022-09-13T14:15:00;0.95;;;0.93;;
16484;SDS011;8353;47.856;12.344;2022-09-13T14:21:38;1.38;;;1.00;;
16484;SDS011;8353;47.856;12.344;2022-09-13T14:24:26;1.00;;;0.90;;
16484;SDS011;8353;47.856;12.344;2022-09-13T14:27:16;1.17;;;1.00;;
16484;SDS011;8353;47.856;12.344;2022-09-13T14:30:15;0.98;;;0.98;;
16484;SDS011;8353;47.856;12.344;2022-09-13T14:33:04;0.80;;;0.73;;
16484;SDS011;8353;47.856;12.344;2022-09-13T14:35:56;0.65;;;0.65;;
16484;SDS011;8353;47.856;12.344;2022-09-13T14:38:50;1.40;;;0.80;;
16484;SDS011;8353;47.856;12.344;2022-09-13T14:41:40;1.50;;;0.98;;
16484;SDS011;8353;47.856;12.344;2022-09-13T14:44:32;0.77;;;0.77;;
16484;SDS011;8353;47.856;12.344;2022-09-13T14:47:20;1.10;;;0.70;;
16484;SDS011;8353;47.856;12.344;2022-09-13T14:50:16;2.28;;;1.20;;
16484;SDS011;8353;47.856;12.344;2022-09-13T14:53:06;0.93;;;0.80;;
16484;SDS011;8353;47.856;12.344;2022-09-13T14:55:59;1.92;;;1.00;;
16484;SDS011;8353;47.856;12.344;2022-09-13T14:58:51;1.33;;;1.00;;
16484;SDS011;8353;47.856;12.344;2022-09-13T15:01:42;1.40;;;1.20;;
16484;SDS011;8353;47.856;12.344;2022-09-13T15:04:29;1.13;;;0.90;;
16484;SDS011;8353;47.856;12.344;2022-09-13T15:07:19;1.42;;;0.90;;
16484;SDS011;8353;47.856;12.344;2022-09-13T15:10:15;1.80;;;0.85;;
16484;SDS011;8353;47.856;12.344;2022-09-13T15:13:08;1.77;;;0.90;;
16484;SDS011;8353;47.856;12.344;2022-09-13T15:16:01;1.65;;;1.00;;
16484;SDS011;8353;47.856;12.344;2022-09-13T15:19:16;3.55;;;1.00;;
16484;SDS011;8353;47.856;12.344;2022-09-13T15:22:18;2.65;;;1.50;;
16484;SDS011;8353;47.856;12.344;2022-09-13T15:25:16;1.85;;;1.05;;
16484;SDS011;8353;47.856;12.344;2022-09-13T15:28:15;2.17;;;1.17;;
16484;SDS011;8353;47.856;12.344;2022-09-13T15:31:08;1.17;;;1.00;;
16484;SDS011;8353;47.856;12.344;2022-09-13T15:34:12;2.30;;;1.00;;
16484;SDS011;8353;47.856;12.344;2022-09-13T15:37:09;1.58;;;0.93;;
16484;SDS011;8353;47.856;12.344;2022-09-13T15:40:06;0.95;;;0.90;;
16484;SDS011;8353;47.856;12.344;2022-09-13T15:43:05;1.25;;;1.10;;
16484;SDS011;8353;47.856;12.344;2022-09-13T15:45:59;0.80;;;0.80;;
16484;SDS011;8353;47.856;12.344;2022-09-13T15:48:50;1.00;;;0.90;;
16484;SDS011;8353;47.856;12.344;2022-09-13T15:51:41;1.33;;;1.20;;
16484;SDS011;8353;47.856;12.344;2022-09-13T15:54:30;1.20;;;1.10;;
16484;SDS011;8353;47.856;12.344;2022-09-13T15:57:20;0.90;;;0.90;;
16484;SDS011;8353;47.856;12.344;2022-09-13T16:00:12;1.85;;;1.20;;
16484;SDS011;8353;47.856;12.344;2022-09-13T16:03:00;1.38;;;1.27;;
16484;SDS011;8353;47.856;12.344;2022-09-13T16:05:47;1.35;;;1.20;;
16484;SDS011;8353;47.856;12.344;2022-09-13T16:08:35;1.10;;;1.00;;
16484;SDS011;8353;47.856;12.344;2022-09-13T16:11:23;1.25;;;1.10;;
16484;SDS011;8353;47.856;12.344;2022-09-13T16:14:10;1.70;;;1.60;;
16484;SDS011;8353;47.856;12.344;2022-09-13T16:16:57;1.13;;;1.00;;
16484;SDS011;8353;47.856;12.344;2022-09-13T16:19:46;1.40;;;1.05;;
16484;SDS011;8353;47.856;12.344;2022-09-13T16:22:33;1.85;;;1.10;;
16484;SDS011;8353;47.856;12.344;2022-09-13T16:25:22;3.47;;;1.88;;
16484;SDS011;8353;47.856;12.344;2022-09-13T16:28:09;2.20;;;1.92;;
16484;SDS011;8353;47.856;12.344;2022-09-13T16:31:02;2.13;;;1.50;;
16484;SDS011;8353;47.856;12.344;2022-09-13T16:33:48;2.83;;;1.30;;
16484;SDS011;8353;47.856;12.344;2022-09-13T16:36:35;2.35;;;1.38;;
16484;SDS011;8353;47.856;12.344;2022-09-13T16:39:22;2.60;;;1.27;;
16484;SDS011;8353;47.856;12.344;2022-09-13T16:42:11;1.73;;;1.02;;
16484;SDS011;8353;47.856;12.344;2022-09-13T16:44:58;1.73;;;1.25;;
16484;SDS011;8353;47.856;12.344;2022-09-13T16:47:45;3.80;;;1.40;;
16484;SDS011;8353;47.856;12.344;2022-09-13T16:50:32;1.77;;;1.15;;
16484;SDS011;8353;47.856;12.344;2022-09-13T16:53:19;2.33;;;1.17;;
16484;SDS011;8353;47.856;12.344;2022-09-13T16:56:06;1.15;;;1.05;;
16484;SDS011;8353;47.856;12.344;2022-09-13T16:58:55;1.95;;;1.13;;
16484;SDS011;8353;47.856;12.344;2022-09-13T17:01:42;2.08;;;1.10;;
16484;SDS011;8353;47.856;12.344;2022-09-13T17:04:29;3.60;;;1.40;;
16484;SDS011;8353;47.856;12.344;2022-09-13T17:07:16;2.50;;;1.13;;
16484;SDS011;8353;47.856;12.344;2022-09-13T17:10:04;1.80;;;1.02;;
16484;SDS011;8353;47.856;12.344;2022-09-13T17:12:52;1.60;;;1.35;;
16484;SDS011;8353;47.856;12.344;2022-09-13T17:15:40;1.90;;;1.17;;
16484;SDS011;8353;47.856;12.344;2022-09-13T17:18:27;3.28;;;1.60;;
16484;SDS011;8353;47.856;12.344;2022-09-13T17:21:14;1.80;;;1.27;;
16484;SDS011;8353;47.856;12.344;2022-09-13T17:24:01;1.13;;;1.02;;
16484;SDS011;8353;47.856;12.344;2022-09-13T17:26:48;1.75;;;1.17;;
16484;SDS011;8353;47.856;12.344;2022-09-13T17:29:35;4.65;;;1.58;;
16484;SDS011;8353;47.856;12.344;2022-09-13T17:32:23;1.35;;;1.10;;
16484;SDS011;8353;47.856;12.344;2022-09-13T17:35:10;1.75;;;1.35;;
16484;SDS011;8353;47.856;12.344;2022-09-13T17:37:58;1.67;;;1.20;;
16484;SDS011;8353;47.856;12.344;2022-09-13T17:40:45;1.73;;;1.40;;
16484;SDS011;8353;47.856;12.344;2022-09-13T17:43:33;1.20;;;1.10;;
16484;SDS011;8353;47.856;12.344;2022-09-13T17:46:20;1.70;;;1.60;;
16484;SDS011;8353;47.856;12.344;2022-09-13T17:49:13;1.73;;;1.20;;